createdAt,value
2018-06-24T12:11:56.263Z,54.34
2018-06-24T12:14:22.272Z,54.84
2018-06-24T12:16:48.323Z,54.15
2018-06-24T12:19:14.345Z,53.83
2018-06-24T12:21:40.385Z,55.41
2018-06-24T12:24:06.419Z,55.18
2018-06-24T12:26:32.469Z,54.70
2018-06-24T12:28:58.439Z,54.44
2018-06-24T12:31:24.457Z,54.61
2018-06-24T12:33:50.463Z,54.92
2018-06-24T12:36:16.428Z,54.78
2018-06-24T12:38:42.370Z,55.35
2018-06-24T12:41:08.365Z,56.69
2018-06-24T12:43:34.390Z,54.90
2018-06-24T12:46:00.318Z,55.07
2018-06-24T12:48:26.276Z,55.50
2018-06-24T12:50:52.245Z,55.28
2018-06-24T12:53:18.222Z,55.43
2018-06-24T12:55:44.227Z,54.66
2018-06-24T12:58:10.257Z,54.68
2018-06-24T13:00:36.627Z,55.17
2018-06-24T13:03:02.185Z,55.64
2018-06-24T13:05:28.199Z,56.04
2018-06-24T13:07:54.168Z,56.45
2018-06-24T13:10:20.383Z,55.69
2018-06-24T13:12:46.371Z,55.41
2018-06-24T13:15:12.331Z,55.67
2018-06-24T13:17:38.267Z,55.26
2018-06-24T13:20:04.235Z,55.23
2018-06-24T13:22:30.174Z,55.84
2018-06-24T13:24:56.395Z,54.45
2018-06-24T13:27:22.495Z,53.92
2018-06-24T13:29:48.484Z,55.18
2018-06-24T13:32:14.645Z,54.79
2018-06-24T13:34:40.742Z,54.75
2018-06-24T13:37:06.760Z,55.26
2018-06-24T13:39:32.747Z,54.43
2018-06-24T13:41:58.729Z,54.24
2018-06-24T13:44:24.720Z,54.46
2018-06-24T13:46:50.717Z,54.29
2018-06-24T13:49:16.692Z,55.11
2018-06-24T13:51:42.680Z,54.20
2018-06-24T13:54:08.640Z,54.36
2018-06-24T13:56:34.693Z,54.19
2018-06-24T13:59:00.643Z,55.24
2018-06-24T14:01:26.618Z,55.35
2018-06-24T14:03:52.600Z,53.70
2018-06-24T14:06:18.618Z,53.76
2018-06-24T14:08:44.619Z,53.77
2018-06-24T14:11:10.802Z,53.73
2018-06-24T14:13:36.810Z,54.08
2018-06-24T14:16:02.822Z,53.29
2018-06-24T14:18:28.856Z,54.90
2018-06-24T14:20:54.843Z,53.06
2018-06-24T14:23:20.872Z,53.59
2018-06-24T14:25:46.799Z,53.66
2018-06-24T14:28:12.777Z,52.70
2018-06-24T14:30:38.740Z,52.60
2018-06-24T14:33:04.706Z,52.72
2018-06-24T14:35:30.692Z,53.18
2018-06-24T14:37:56.649Z,51.87
2018-06-24T14:40:22.592Z,51.94
2018-06-24T14:42:48.617Z,51.63
2018-06-24T14:45:14.571Z,51.86
2018-06-24T14:47:40.549Z,52.99
2018-06-24T14:50:06.488Z,50.70
2018-06-24T14:52:32.473Z,51.78
2018-06-24T14:54:58.442Z,51.73
2018-06-24T14:57:24.390Z,51.89
2018-06-24T14:59:50.468Z,52.16
2018-06-24T15:02:16.447Z,51.92
2018-06-24T15:04:42.546Z,52.10
2018-06-24T15:07:08.561Z,51.06
2018-06-24T15:09:34.553Z,51.84
2018-06-24T15:12:00.514Z,51.53
2018-06-24T15:14:26.492Z,51.83
2018-06-24T15:16:52.482Z,52.50
2018-06-24T15:19:18.536Z,52.55
2018-06-24T15:21:44.530Z,52.34
2018-06-24T15:24:10.511Z,52.70
2018-06-24T15:26:36.539Z,52.24
2018-06-24T15:29:02.528Z,52.86
2018-06-24T15:31:28.520Z,52.74
2018-06-24T15:33:54.628Z,54.31
2018-06-24T15:36:20.650Z,53.00
2018-06-24T15:38:46.699Z,53.67
2018-06-24T15:41:12.695Z,53.45
2018-06-24T15:43:38.674Z,51.93
2018-06-24T15:46:04.712Z,53.29
2018-06-24T15:48:30.698Z,53.22
2018-06-24T15:50:56.705Z,51.62
2018-06-24T15:53:23.068Z,51.58
2018-06-24T15:55:49.065Z,51.97
2018-06-24T15:58:15.025Z,51.25
2018-06-24T16:00:41.007Z,52.44
2018-06-24T16:03:07.740Z,51.58
2018-06-24T16:05:33.820Z,51.90
2018-06-24T16:07:59.898Z,51.54
2018-06-24T16:10:25.876Z,52.38
2018-06-24T16:12:51.865Z,52.28
2018-06-24T16:15:17.921Z,52.47
2018-06-24T16:17:43.880Z,52.31
2018-06-24T16:20:10.908Z,52.74
2018-06-24T16:22:36.918Z,53.65
2018-06-24T16:25:02.888Z,53.38
2018-06-24T16:27:28.944Z,53.47
2018-06-24T16:29:54.897Z,54.30
2018-06-24T16:32:20.914Z,53.57
2018-06-24T16:34:46.888Z,53.04
2018-06-24T16:37:17.140Z,53.38
2018-06-24T16:39:43.099Z,53.70
2018-06-24T16:42:09.059Z,53.19
2018-06-24T16:44:35.031Z,54.25
2018-06-24T16:47:01.004Z,53.71
2018-06-24T16:49:26.970Z,53.83
2018-06-24T16:51:52.998Z,53.13
2018-06-24T16:54:20.147Z,52.35
2018-06-24T16:56:46.198Z,52.24
2018-06-24T16:59:12.228Z,52.80
2018-06-24T17:01:38.219Z,52.12
2018-06-24T17:04:04.457Z,52.20
2018-06-24T17:06:30.422Z,51.75
2018-06-24T17:08:56.492Z,52.62
2018-06-24T17:11:22.506Z,53.00
2018-06-24T17:13:48.743Z,51.62
2018-06-24T17:16:14.761Z,51.49
2018-06-24T17:18:42.772Z,51.73
2018-06-24T17:21:10.008Z,51.93
2018-06-24T17:23:39.729Z,51.82
2018-06-24T17:26:05.754Z,52.16
2018-06-24T17:28:31.820Z,52.20
2018-06-24T17:30:57.839Z,52.24
2018-06-24T17:33:23.858Z,51.98
2018-06-24T17:35:49.962Z,52.56
2018-06-24T17:38:16.046Z,52.71
2018-06-24T17:40:42.107Z,52.74
2018-06-24T17:43:09.230Z,52.86
2018-06-24T17:45:35.267Z,52.91
2018-06-24T17:48:01.266Z,53.09
2018-06-24T17:53:44.999Z,54.39
2018-06-24T17:56:12.075Z,54.81
2018-06-24T17:58:43.515Z,53.95
2018-06-24T18:01:13.488Z,53.80
2018-06-24T18:03:41.588Z,54.37
2018-06-24T18:06:07.737Z,54.64
2018-06-24T18:08:33.812Z,55.40
2018-06-24T18:10:59.815Z,55.08
2018-06-24T18:13:26.762Z,54.79
2018-06-24T18:15:53.834Z,54.34
2018-06-24T18:18:20.114Z,54.47
2018-06-24T18:20:46.368Z,54.50
2018-06-24T18:23:12.425Z,54.99
2018-06-24T18:25:38.419Z,54.86
2018-06-24T18:28:04.482Z,54.97
2018-06-24T18:30:33.805Z,54.95
2018-06-24T18:32:59.925Z,55.19
2018-06-24T18:35:29.285Z,56.28
2018-06-24T18:38:03.629Z,54.90
2018-06-24T18:40:30.886Z,55.01
2018-06-24T18:45:31.660Z,54.79
2018-06-24T18:48:02.035Z,55.20
2018-06-24T18:50:28.100Z,54.98
2018-06-24T18:52:54.219Z,55.33
2018-06-24T18:55:20.597Z,54.99
2018-06-24T18:57:47.325Z,55.81
2018-06-24T19:00:13.577Z,55.42
2018-06-24T19:07:42.231Z,57.91
2018-06-24T19:10:08.371Z,58.68
2018-06-24T19:12:34.538Z,59.70
2018-06-24T19:17:47.319Z,58.84
2018-06-24T19:20:15.669Z,58.38
2018-06-24T19:22:49.476Z,56.89
2018-06-24T19:32:08.566Z,56.99
2018-06-24T19:34:42.104Z,56.83
2018-06-24T19:39:41.570Z,56.28
2018-06-24T19:42:08.980Z,56.71
2018-06-24T19:44:38.360Z,56.90
2018-06-24T19:47:04.610Z,56.59
2018-06-24T19:49:31.855Z,56.41
2018-06-24T19:51:58.062Z,56.88
2018-06-24T19:54:24.199Z,56.95
2018-06-24T19:56:52.498Z,58.11
2018-06-24T20:01:51.620Z,57.81
2018-06-24T20:06:52.854Z,57.60
2018-06-24T20:14:25.595Z,58.40
2018-06-24T20:19:23.908Z,59.33
2018-06-24T20:31:05.197Z,58.35
2018-06-24T20:33:32.050Z,58.32
2018-06-24T20:35:58.353Z,59.07
2018-06-24T20:38:26.412Z,59.60
2018-06-24T20:40:57.608Z,59.34
2018-06-24T20:53:29.847Z,61.13
2018-06-24T20:55:55.885Z,61.48
2018-06-24T20:58:21.912Z,60.93
2018-06-24T21:00:52.615Z,60.69
2018-06-24T21:03:22.347Z,61.04
2018-06-24T21:08:20.841Z,60.94
2018-06-24T21:10:47.939Z,60.75
2018-06-24T21:13:14.121Z,60.50
2018-06-24T21:15:40.191Z,61.04
2018-06-24T21:18:07.082Z,60.80
2018-06-24T21:20:33.066Z,60.58
2018-06-24T21:23:00.106Z,60.40
2018-06-24T21:25:26.097Z,60.68
2018-06-24T21:27:53.107Z,60.82
2018-06-24T21:32:50.463Z,61.24
2018-06-24T21:35:16.436Z,60.41
2018-06-24T21:37:42.976Z,60.90
2018-06-24T21:40:08.994Z,61.70
2018-06-24T21:47:43.198Z,61.69
2018-06-24T21:50:09.876Z,61.92
2018-06-24T21:52:35.927Z,61.28
2018-06-24T21:55:01.968Z,62.55
2018-06-24T21:57:27.953Z,61.27
2018-06-24T21:59:53.974Z,61.67
2018-06-24T22:02:20.076Z,62.71
2018-06-24T22:04:46.114Z,61.92
2018-06-24T22:07:12.170Z,62.65
2018-06-24T22:09:38.180Z,62.20
2018-06-24T22:12:04.233Z,62.63
2018-06-24T22:14:30.345Z,62.80
2018-06-24T22:16:56.564Z,62.69
2018-06-24T22:19:22.630Z,62.51
2018-06-24T22:21:50.698Z,62.71
2018-06-24T22:24:16.766Z,62.06
2018-06-24T22:26:42.849Z,62.17
2018-06-24T22:29:08.886Z,62.46
2018-06-24T22:31:34.926Z,62.20
2018-06-24T22:34:01.092Z,62.80
2018-06-24T22:36:27.194Z,62.48
2018-06-24T22:38:53.237Z,63.40
2018-06-24T22:41:19.313Z,63.16
2018-06-24T22:43:45.356Z,62.73
2018-06-24T22:46:11.385Z,63.00
2018-06-24T22:48:38.409Z,62.16
2018-06-24T22:51:04.508Z,62.82
2018-06-24T22:53:30.548Z,62.50
2018-06-24T22:55:56.578Z,64.01
2018-06-24T22:58:22.747Z,63.87
2018-06-24T23:00:48.756Z,63.71
2018-06-24T23:03:14.884Z,64.22
2018-06-24T23:05:40.880Z,63.16
2018-06-24T23:08:07.766Z,62.89
2018-06-24T23:10:33.844Z,63.02
2018-06-24T23:12:59.908Z,63.57
2018-06-24T23:15:25.915Z,63.55
2018-06-24T23:17:51.952Z,63.68
2018-06-24T23:20:17.952Z,63.91
2018-06-24T23:22:43.986Z,63.75
2018-06-24T23:25:10.006Z,64.02
2018-06-24T23:30:08.285Z,64.16
2018-06-24T23:32:35.137Z,64.79
2018-06-24T23:35:01.172Z,64.13
2018-06-24T23:37:27.234Z,64.39
2018-06-24T23:39:53.313Z,64.55
2018-06-24T23:42:19.354Z,64.81
2018-06-24T23:44:45.380Z,64.14
2018-06-24T23:47:11.398Z,65.86
2018-06-24T23:49:37.419Z,65.28
2018-06-24T23:52:03.459Z,65.35
2018-06-24T23:54:29.410Z,65.33
2018-06-24T23:56:55.447Z,65.86
2018-06-24T23:59:21.419Z,65.29
